world map with ZYCC marked

ZYCC - Airport

This information may not be accurate or current and is not valid for navigation or flight planning. No warranty of fitness for any purpose is made or implied.

flag of China

Donate via PayPal

Additional information is available on the NEW Great Circle Mapper

Location
City:  Changchun, Jilin, China
Name:Longjia International Airport
ICAO / IATA:ZYCC / CGQ

Details
Type:Airport (Aerodrome, Airfield)
Use:Public/Civil
Latitude:43°59'46"N (43.996214)
Longitude:125°41'07"E (125.685356)
Datum:WGS 1984
Elevation:706 ft (215 m)
Runways:1
Longest:10500 × 148 ft (3200 × 45 m)

Time
Timezone:UTC+8 (DST+10)
Local Time:

Weather
METAR:ZYCC  101900Z 00000MPS 4000 HZ NSC M22/M26 Q1035 NOSIG
TAF:ZYCC  (expired)

Related Locations
Nearby:
Farthest:MJR: 11993 mi / 19300 km
Miramar [Miramar Airport], B, AR

Find:

   beyond  
but within

Other Information
Maps:
Links:
Sources:

  


 


Great Circle Mapper   Great Circle Mapper
Great Circle Mapper FAQ   Great Circle Mapper FAQ
  Karl's Home Page
KLSē   KLSē Home
   GC on Facebook
Airlines of the World   Airlines of the World
Donate via PayPal


Copyright © 2004-2018, Karl L. Swartz. All rights reserved.
All trademarks mentioned herein belong to their respective owners.

Please see credits for attribution and copyright information.

Karl Swartz <karl@kls2.com>
  Powered by FreeBSD
Valid HTML 4.01!
Labeled with ICRA
hCard Microformat
Geo Microformat